Time;durP1;ratioP1;P1;durP2;ratioP2;P2;SDS_P1;SDS_P2;PMS_P1;PMS_P2;Temp;Humidity;BMP_temperature;BMP_pressure;BME280_temperature;BME280_humidity;BME280_pressure;Samples;Min_cycle;Max_cycle;Signal;HPM_P1;HPM_P2
2021/07/19 00:00:50;;;;;;;5.00;4.33;;;;;24.60;101109.00;;;;2060957;28;20207;-66
2021/07/19 00:01:51;;;;;;;4.60;4.10;;;;;24.60;101108.00;;;;2060882;28;20222;-66
2021/07/19 00:02:54;;;;;;;4.27;3.97;;;;;24.60;101110.00;;;;2059255;28;20211;-66
2021/07/19 00:03:55;;;;;;;4.82;4.40;;;;;24.60;101104.00;;;;2050579;28;20215;-66
2021/07/19 00:04:55;;;;;;;5.37;4.60;;;;;24.60;101107.00;;;;2050514;28;20216;-66
2021/07/19 00:05:55;;;;;;;4.20;3.80;;;;;24.60;101106.00;;;;2059386;28;20223;-66
2021/07/19 00:06:56;;;;;;;4.40;4.10;;;;;24.60;101100.00;;;;2059928;28;20254;-66
2021/07/19 00:07:56;;;;;;;5.10;4.50;;;;;24.60;101108.00;;;;2060151;28;20266;-66
2021/07/19 00:08:56;;;;;;;4.47;4.07;;;;;24.60;101110.00;;;;2060007;28;20222;-66
2021/07/19 00:09:57;;;;;;;4.30;4.00;;;;;24.60;101116.00;;;;2059498;28;20223;-66
2021/07/19 00:10:57;;;;;;;4.90;4.47;;;;;24.60;101115.00;;;;2058626;28;20223;-66
2021/07/19 00:11:57;;;;;;;4.63;4.23;;;;;24.60;101110.00;;;;2058922;28;20973;-66
2021/07/19 00:12:58;;;;;;;4.90;4.17;;;;;24.60;101114.00;;;;2042099;29;20224;-66
2021/07/19 00:13:58;;;;;;;4.47;4.07;;;;;24.60;101110.00;;;;2042182;29;20227;-66
2021/07/19 00:14:59;;;;;;;4.53;4.13;;;;;24.60;101115.00;;;;2060917;28;20709;-66
2021/07/19 00:15:59;;;;;;;4.57;4.20;;;;;24.60;101115.00;;;;2062106;28;20693;-66
2021/07/19 00:16:59;;;;;;;4.07;3.73;;;;;24.60;101108.00;;;;2061365;28;20688;-66
2021/07/19 00:18:00;;;;;;;4.27;3.63;;;;;24.60;101108.00;;;;2062772;28;20302;-66
2021/07/19 00:19:00;;;;;;;4.20;3.77;;;;;24.60;101103.00;;;;2059781;28;20221;-67
2021/07/19 00:20:00;;;;;;;3.93;3.40;;;;;24.60;101105.00;;;;2059070;28;20667;-66
2021/07/19 00:21:01;;;;;;;4.30;4.00;;;;;24.60;101109.00;;;;2058463;28;20213;-66
2021/07/19 00:22:01;;;;;;;4.50;4.10;;;;;24.60;101103.00;;;;2059261;28;20298;-66
2021/07/19 00:23:01;;;;;;;4.80;4.40;;;;;24.60;101094.00;;;;2050651;28;20208;-66
2021/07/19 00:24:02;;;;;;;4.50;4.10;;;;;24.60;101102.00;;;;2050648;28;20212;-66
2021/07/19 00:25:04;;;;;;;5.23;4.63;;;;;24.60;101105.00;;;;2059148;28;20275;-66
2021/07/19 00:26:05;;;;;;;4.25;3.95;;;;;24.60;101094.00;;;;2059033;28;20698;-66
2021/07/19 00:27:05;;;;;;;4.53;4.13;;;;;24.60;101094.00;;;;2059045;28;20235;-67
2021/07/19 00:28:05;;;;;;;4.97;3.90;;;;;24.60;101101.00;;;;2059143;28;20207;-66
2021/07/19 00:29:06;;;;;;;4.37;3.97;;;;;24.60;101096.00;;;;2058950;28;20238;-66
2021/07/19 00:30:07;;;;;;;4.30;3.90;;;;;24.60;101100.00;;;;2058231;28;20222;-66
2021/07/19 00:31:07;;;;;;;4.45;4.15;;;;;24.60;101096.00;;;;2057480;28;20211;-67
2021/07/19 00:32:08;;;;;;;5.03;3.83;;;;;24.60;101093.00;;;;2059105;28;20208;-67
2021/07/19 00:33:08;;;;;;;4.50;3.80;;;;;24.60;101088.00;;;;2051012;28;20242;-66
2021/07/19 00:34:08;;;;;;;4.70;4.30;;;;;24.60;101096.00;;;;2050931;28;20297;-66
2021/07/19 00:35:09;;;;;;;4.53;3.30;;;;;24.60;101096.00;;;;2059703;28;20735;-65
2021/07/19 00:36:10;;;;;;;4.30;4.00;;;;;24.60;101107.00;;;;2059113;28;20221;-66
2021/07/19 00:37:10;;;;;;;3.80;3.50;;;;;24.60;101096.00;;;;2058781;28;20219;-66
2021/07/19 00:38:10;;;;;;;5.53;3.80;;;;;24.60;101096.00;;;;2050480;28;20216;-66
2021/07/19 00:39:10;;;;;;;3.53;3.23;;;;;24.60;101096.00;;;;2050425;28;20243;-66
2021/07/19 00:40:16;;;;;;;3.73;3.37;;;;;24.60;101090.00;;;;2058656;28;21790;-66
2021/07/19 00:41:16;;;;;;;3.95;3.58;;;;;24.60;101095.00;;;;2059689;28;20215;-66
2021/07/19 00:42:17;;;;;;;3.80;3.50;;;;;24.60;101094.00;;;;2059822;28;20218;-66
2021/07/19 00:43:17;;;;;;;3.93;3.60;;;;;24.60;101080.00;;;;2059834;28;20211;-66
2021/07/19 00:44:20;;;;;;;4.10;3.70;;;;;24.60;101083.00;;;;2059583;28;20222;-66
2021/07/19 00:45:22;;;;;;;3.58;3.28;;;;;24.60;101088.00;;;;2061253;28;20214;-66
2021/07/19 00:46:23;;;;;;;3.88;3.58;;;;;24.60;101086.00;;;;2054795;28;20243;-66
2021/07/19 00:47:23;;;;;;;4.87;3.63;;;;;24.60;101086.00;;;;2053626;28;20212;-66
2021/07/19 00:48:23;;;;;;;3.60;3.30;;;;;24.60;101085.00;;;;2059694;28;20216;-66
2021/07/19 00:49:24;;;;;;;4.17;3.60;;;;;24.60;101085.00;;;;2050870;28;20216;-66
2021/07/19 00:50:26;;;;;;;4.13;3.83;;;;;24.60;101075.00;;;;2055383;28;20223;-66
2021/07/19 00:51:26;;;;;;;3.35;3.08;;;;;24.60;101083.00;;;;2060778;28;20223;-66
2021/07/19 00:52:27;;;;;;;4.00;3.57;;;;;24.60;101087.00;;;;2059615;28;20207;-66
2021/07/19 00:53:27;;;;;;;4.10;3.70;;;;;24.60;101089.00;;;;2051049;28;20212;-66
2021/07/19 00:54:28;;;;;;;3.83;3.20;;;;;24.60;101084.00;;;;2051111;28;20216;-66
2021/07/19 00:55:48;;;;;;;3.83;3.50;;;;;24.60;101082.00;;;;2059709;28;20210;-66
2021/07/19 00:56:49;;;;;;;4.20;3.65;;;;;24.60;101084.00;;;;2058997;28;20595;-66
2021/07/19 00:57:49;;;;;;;4.40;3.17;;;;;24.60;101080.00;;;;2050975;28;20224;-67
2021/07/19 00:58:50;;;;;;;3.40;3.20;;;;;24.60;101082.00;;;;2043134;29;20235;-66
2021/07/19 00:59:50;;;;;;;3.20;3.00;;;;;24.50;101085.00;;;;2050983;28;20591;-66
2021/07/19 01:00:53;;;;;;;3.50;3.20;;;;;24.60;101084.00;;;;2042540;29;20228;-66
2021/07/19 01:01:54;;;;;;;3.30;3.00;;;;;24.50;101088.00;;;;2049588;28;20232;-66
2021/07/19 01:02:55;;;;;;;3.47;3.15;;;;;24.50;101075.00;;;;2050174;28;20262;-66
2021/07/19 01:03:56;;;;;;;4.57;3.80;;;;;24.50;101068.00;;;;2041637;29;21816;-66
2021/07/19 01:04:56;;;;;;;3.53;3.22;;;;;24.50;101068.00;;;;2052992;28;20203;-66
2021/07/19 01:05:57;;;;;;;3.50;3.17;;;;;24.50;101086.00;;;;2052463;28;20710;-66
2021/07/19 01:07:00;;;;;;;3.80;3.50;;;;;24.50;101082.00;;;;2050839;28;20215;-66
2021/07/19 01:08:01;;;;;;;3.47;3.10;;;;;24.50;101071.00;;;;2061514;28;20465;-67
2021/07/19 01:09:03;;;;;;;3.93;3.03;;;;;24.50;101079.00;;;;2042969;29;20601;-67
2021/07/19 01:10:22;;;;;;;3.60;3.30;;;;;24.50;101080.00;;;;2042470;28;20220;-66
2021/07/19 01:11:23;;;;;;;3.58;3.22;;;;;24.50;101075.00;;;;2058597;28;20597;-66
2021/07/19 01:12:24;;;;;;;3.80;3.30;;;;;24.50;101079.00;;;;2058576;28;20223;-66
2021/07/19 01:13:24;;;;;;;3.78;3.47;;;;;24.50;101078.00;;;;2050175;28;20303;-66
2021/07/19 01:14:25;;;;;;;3.97;3.40;;;;;24.50;101080.00;;;;2042316;29;20244;-66
2021/07/19 01:15:26;;;;;;;3.67;3.30;;;;;24.50;101078.00;;;;2050790;28;20215;-66
2021/07/19 01:16:27;;;;;;;3.55;3.25;;;;;24.50;101075.00;;;;2059325;28;20219;-66
2021/07/19 01:17:27;;;;;;;3.77;2.90;;;;;24.50;101071.00;;;;2059424;28;20216;-66
2021/07/19 01:18:27;;;;;;;3.53;3.23;;;;;24.50;101069.00;;;;2050607;28;20867;-66
2021/07/19 01:19:29;;;;;;;3.80;3.50;;;;;24.50;101075.00;;;;2041572;29;20983;-66
2021/07/19 01:20:53;;;;;;;3.08;2.75;;;;;24.50;101074.00;;;;2041518;29;20219;-66
2021/07/19 01:22:11;;;;;;;3.33;3.13;;;;;24.50;101076.00;;;;2044833;28;20223;-66
2021/07/19 01:23:28;;;;;;;3.40;3.10;;;;;24.50;101078.00;;;;2054169;28;20214;-66
2021/07/19 01:24:56;;;;;;;3.40;3.10;;;;;24.50;101076.00;;;;2050141;28;20254;-66
2021/07/19 01:26:05;;;;;;;3.58;3.25;;;;;24.50;101070.00;;;;2053895;28;20223;-66
2021/07/19 01:27:48;;;;;;;3.17;2.97;;;;;24.50;101065.00;;;;2066001;28;20736;-66
2021/07/19 01:28:49;;;;;;;3.70;3.40;;;;;24.50;101061.00;;;;2057570;28;20846;-67
2021/07/19 01:29:50;;;;;;;3.50;3.20;;;;;24.50;101064.00;;;;2054867;28;20232;-66
2021/07/19 01:30:50;;;;;;;3.93;3.23;;;;;24.50;101060.00;;;;2050513;28;20759;-66
2021/07/19 01:31:52;;;;;;;3.90;3.60;;;;;24.50;101060.00;;;;2042828;29;20696;-66
2021/07/19 01:32:52;;;;;;;3.78;3.42;;;;;24.50;101055.00;;;;2042961;28;20220;-66
2021/07/19 01:33:57;;;;;;;3.50;3.20;;;;;24.50;101059.00;;;;2034691;29;20294;-66
2021/07/19 01:34:57;;;;;;;3.78;3.47;;;;;24.50;101056.00;;;;2044792;28;20302;-66
2021/07/19 01:35:58;;;;;;;3.53;3.23;;;;;24.50;101057.00;;;;2042493;29;20224;-66
2021/07/19 01:37:00;;;;;;;3.43;3.13;;;;;24.50;101062.00;;;;2049705;28;20227;-66
2021/07/19 01:38:00;;;;;;;3.22;2.92;;;;;24.50;101061.00;;;;2060403;28;20697;-66
2021/07/19 01:39:01;;;;;;;3.60;3.30;;;;;24.50;101059.00;;;;2058037;28;21845;-66
2021/07/19 01:40:01;;;;;;;3.27;2.97;;;;;24.50;101059.00;;;;2049988;28;20220;-67
2021/07/19 01:41:02;;;;;;;3.30;3.00;;;;;24.50;101057.00;;;;2039765;28;20243;-67
2021/07/19 01:42:02;;;;;;;3.37;3.07;;;;;24.50;101057.00;;;;2058625;28;20242;-66
2021/07/19 01:43:03;;;;;;;3.30;3.00;;;;;24.50;101058.00;;;;2050845;28;20223;-66
2021/07/19 01:44:03;;;;;;;3.43;3.13;;;;;24.50;101053.00;;;;2040593;29;20262;-66
2021/07/19 01:45:05;;;;;;;3.60;3.20;;;;;24.50;101054.00;;;;2047316;28;20224;-66
2021/07/19 01:46:06;;;;;;;3.33;3.03;;;;;24.50;101052.00;;;;2036486;29;20240;-66
2021/07/19 01:47:06;;;;;;;3.40;3.10;;;;;24.50;101061.00;;;;2035102;29;20219;-66
2021/07/19 01:48:07;;;;;;;3.10;2.87;;;;;24.50;101059.00;;;;2034172;29;20296;-66
2021/07/19 01:49:08;;;;;;;3.03;2.83;;;;;24.50;101053.00;;;;2042118;28;20467;-66
2021/07/19 01:50:09;;;;;;;3.60;3.30;;;;;24.50;101060.00;;;;2042626;29;20552;-66
2021/07/19 01:51:10;;;;;;;2.90;2.70;;;;;24.50;101054.00;;;;2042247;28;20276;-66
2021/07/19 01:52:11;;;;;;;3.05;2.80;;;;;24.50;101050.00;;;;2050730;28;20212;-66
2021/07/19 01:53:12;;;;;;;5.30;3.63;;;;;24.50;101049.00;;;;2042905;28;20663;-66
2021/07/19 01:54:13;;;;;;;3.50;3.20;;;;;24.50;101056.00;;;;2050000;28;20302;-66
2021/07/19 01:55:14;;;;;;;3.28;3.08;;;;;24.50;101047.00;;;;2050039;28;20219;-66
2021/07/19 01:56:14;;;;;;;3.37;3.07;;;;;24.50;101041.00;;;;2049982;28;20694;-66
2021/07/19 01:57:15;;;;;;;2.80;2.60;;;;;24.50;101048.00;;;;2042154;29;20604;-66
2021/07/19 01:58:16;;;;;;;3.63;3.28;;;;;24.50;101054.00;;;;2034867;28;20325;-66
2021/07/19 01:59:17;;;;;;;3.00;2.80;;;;;24.50;101047.00;;;;2050955;28;20218;-66
2021/07/19 02:00:18;;;;;;;3.13;2.92;;;;;24.50;101054.00;;;;2058737;28;20208;-66
2021/07/19 02:01:18;;;;;;;3.30;3.00;;;;;24.50;101046.00;;;;2059050;28;20207;-66
2021/07/19 02:02:20;;;;;;;3.53;2.77;;;;;24.50;101050.00;;;;2058518;28;20238;-66
2021/07/19 02:03:21;;;;;;;3.60;3.30;;;;;24.50;101053.00;;;;2049796;28;20651;-66
2021/07/19 02:04:21;;;;;;;3.65;3.22;;;;;24.50;101051.00;;;;2042193;29;20211;-66
2021/07/19 02:05:23;;;;;;;3.43;3.13;;;;;24.50;101047.00;;;;2039439;29;20236;-66
2021/07/19 02:06:25;;;;;;;3.45;3.15;;;;;24.50;101051.00;;;;2034208;29;20273;-66
2021/07/19 02:07:25;;;;;;;3.50;3.20;;;;;24.50;101050.00;;;;2042339;28;20224;-66
2021/07/19 02:08:25;;;;;;;3.60;3.30;;;;;24.50;101049.00;;;;2049882;28;20782;-66
2021/07/19 02:09:26;;;;;;;3.30;3.00;;;;;24.50;101055.00;;;;2041762;29;20288;-66
2021/07/19 02:10:26;;;;;;;3.60;3.20;;;;;24.50;101055.00;;;;2049640;28;20243;-66
2021/07/19 02:11:27;;;;;;;3.30;3.00;;;;;24.50;101056.00;;;;2042653;29;20231;-66
2021/07/19 02:12:27;;;;;;;3.23;3.00;;;;;24.50;101058.00;;;;2042173;28;20216;-66
2021/07/19 02:13:31;;;;;;;3.17;2.90;;;;;24.40;101056.00;;;;2059242;28;20446;-66
2021/07/19 02:14:31;;;;;;;4.72;3.38;;;;;24.40;101056.00;;;;2061175;28;20231;-66
2021/07/19 02:15:32;;;;;;;3.83;3.50;;;;;24.40;101064.00;;;;2035036;29;20299;-66
2021/07/19 02:16:32;;;;;;;4.07;2.90;;;;;24.40;101060.00;;;;2036927;29;20256;-66
2021/07/19 02:17:34;;;;;;;3.40;3.13;;;;;24.40;101059.00;;;;2051825;28;20219;-66
2021/07/19 02:18:35;;;;;;;3.28;2.97;;;;;24.40;101064.00;;;;2042148;28;20326;-67
2021/07/19 02:19:36;;;;;;;3.50;2.97;;;;;24.50;101067.00;;;;2034025;29;20272;-66
2021/07/19 02:20:37;;;;;;;3.28;2.97;;;;;24.50;101067.00;;;;2033616;29;20533;-66
2021/07/19 02:21:38;;;;;;;3.73;3.43;;;;;24.40;101063.00;;;;2049843;28;20220;-66
2021/07/19 02:22:39;;;;;;;3.57;3.27;;;;;24.40;101068.00;;;;2042684;29;20217;-66
2021/07/19 02:23:40;;;;;;;3.65;3.35;;;;;24.40;101075.00;;;;2035086;28;20461;-65
2021/07/19 02:24:40;;;;;;;5.60;3.40;;;;;24.40;101065.00;;;;2042679;28;20220;-66
2021/07/19 02:25:40;;;;;;;3.80;3.20;;;;;24.40;101075.00;;;;2050208;28;20262;-66
2021/07/19 02:26:41;;;;;;;3.37;3.07;;;;;24.40;101067.00;;;;2049924;28;20220;-66
2021/07/19 02:27:42;;;;;;;3.60;2.90;;;;;24.40;101072.00;;;;2049767;28;20769;-66
2021/07/19 02:28:43;;;;;;;3.40;3.10;;;;;24.40;101065.00;;;;2049869;28;21318;-66
2021/07/19 02:29:44;;;;;;;3.27;3.07;;;;;24.40;101063.00;;;;2049571;28;20308;-66
2021/07/19 02:30:45;;;;;;;3.13;2.83;;;;;24.40;101062.00;;;;2033555;29;20217;-66
2021/07/19 02:31:47;;;;;;;3.47;3.20;;;;;24.40;101058.00;;;;2042085;29;20223;-65
2021/07/19 02:32:50;;;;;;;3.45;3.15;;;;;24.40;101060.00;;;;2059029;28;20815;-66
2021/07/19 02:33:51;;;;;;;3.40;3.10;;;;;24.40;101067.00;;;;2060131;28;20298;-66
2021/07/19 02:34:51;;;;;;;4.20;3.10;;;;;24.40;101062.00;;;;2060746;28;20208;-65
2021/07/19 02:35:51;;;;;;;4.20;3.20;;;;;24.40;101060.00;;;;2060895;28;20208;-65
2021/07/19 02:36:52;;;;;;;3.30;3.10;;;;;24.50;101056.00;;;;2044145;29;20331;-66
2021/07/19 02:37:56;;;;;;;2.90;2.70;;;;;24.40;101071.00;;;;2036058;29;20604;-66
2021/07/19 02:38:57;;;;;;;3.50;3.20;;;;;24.40;101064.00;;;;2051940;28;20216;-66
2021/07/19 02:39:57;;;;;;;4.17;3.30;;;;;24.40;101059.00;;;;2051131;28;20208;-66
2021/07/19 02:40:58;;;;;;;4.07;3.67;;;;;24.40;101066.00;;;;2042640;29;20268;-66
2021/07/19 02:41:59;;;;;;;3.42;3.13;;;;;24.40;101062.00;;;;2051711;28;20255;-66
2021/07/19 02:43:01;;;;;;;3.30;3.00;;;;;24.40;101051.00;;;;2052121;28;20224;-66
2021/07/19 02:44:02;;;;;;;4.00;3.58;;;;;24.40;101063.00;;;;2040956;29;20244;-66
2021/07/19 02:45:06;;;;;;;3.67;3.37;;;;;24.40;101057.00;;;;2057360;28;20215;-65
2021/07/19 02:46:06;;;;;;;3.80;3.35;;;;;24.40;101058.00;;;;2061712;28;20450;-66
2021/07/19 02:47:06;;;;;;;3.33;3.03;;;;;24.40;101056.00;;;;2053027;28;20220;-66
2021/07/19 02:48:07;;;;;;;3.90;3.60;;;;;24.40;101059.00;;;;2042694;29;20217;-66
2021/07/19 02:49:10;;;;;;;3.77;3.47;;;;;24.40;101044.00;;;;2050676;28;20216;-66
2021/07/19 02:50:14;;;;;;;3.30;3.00;;;;;24.40;101060.00;;;;2035826;29;20466;-66
2021/07/19 02:51:15;;;;;;;3.50;3.20;;;;;24.40;101051.00;;;;2037417;28;20229;-66
2021/07/19 02:52:15;;;;;;;3.70;3.40;;;;;24.40;101067.00;;;;2043980;28;20212;-66
2021/07/19 02:53:16;;;;;;;3.17;2.97;;;;;24.40;101058.00;;;;2051368;28;20860;-66
2021/07/19 02:54:17;;;;;;;3.15;2.95;;;;;24.40;101059.00;;;;2050974;28;20282;-66
2021/07/19 02:55:18;;;;;;;3.65;3.30;;;;;24.40;101056.00;;;;2051138;28;20231;-66
2021/07/19 02:56:19;;;;;;;3.70;3.40;;;;;24.40;101058.00;;;;2043273;29;20236;-66
2021/07/19 02:57:19;;;;;;;3.28;3.08;;;;;24.40;101054.00;;;;2051509;28;20220;-66
2021/07/19 02:58:20;;;;;;;3.40;3.10;;;;;24.40;101057.00;;;;2050559;28;20208;-66
2021/07/19 02:59:21;;;;;;;3.30;3.10;;;;;24.40;101054.00;;;;2051430;28;20212;-66
2021/07/19 03:00:21;;;;;;;3.23;2.93;;;;;24.40;101053.00;;;;2042923;29;20243;-66
2021/07/19 03:01:21;;;;;;;3.50;3.20;;;;;24.40;101054.00;;;;2050909;28;20832;-66
2021/07/19 03:02:22;;;;;;;3.37;3.17;;;;;24.40;101050.00;;;;2059221;28;20553;-66
2021/07/19 03:03:24;;;;;;;3.90;2.93;;;;;24.40;101055.00;;;;2042835;29;20260;-66
2021/07/19 03:04:25;;;;;;;3.90;3.47;;;;;24.40;101048.00;;;;2042547;28;20228;-66
2021/07/19 03:05:28;;;;;;;4.03;3.60;;;;;24.40;101049.00;;;;2043170;29;20259;-66
2021/07/19 03:06:31;;;;;;;3.55;3.25;;;;;24.40;101052.00;;;;2043579;28;20217;-66
2021/07/19 03:07:32;;;;;;;3.80;3.50;;;;;24.40;101054.00;;;;2037888;29;20252;-66
2021/07/19 03:08:34;;;;;;;3.50;3.20;;;;;24.40;101045.00;;;;2034502;29;20231;-66
2021/07/19 03:09:39;;;;;;;3.40;3.10;;;;;24.40;101050.00;;;;2058842;28;21605;-66
2021/07/19 03:10:39;;;;;;;3.40;3.10;;;;;24.40;101060.00;;;;2048995;28;20228;-66
2021/07/19 03:11:50;;;;;;;3.57;3.27;;;;;24.40;101059.00;;;;2050909;28;20235;-66
2021/07/19 03:12:54;;;;;;;3.42;3.13;;;;;24.40;101062.00;;;;2056318;28;20223;-66
2021/07/19 03:13:57;;;;;;;3.78;3.47;;;;;24.40;101065.00;;;;2048224;28;20621;-66
2021/07/19 03:14:57;;;;;;;3.63;3.33;;;;;24.40;101060.00;;;;2045172;28;20737;-66
2021/07/19 03:15:58;;;;;;;3.60;3.10;;;;;24.40;101060.00;;;;2053518;28;20210;-66
2021/07/19 03:16:58;;;;;;;4.13;3.60;;;;;24.40;101043.00;;;;2061742;28;20215;-66
2021/07/19 03:17:59;;;;;;;4.60;3.40;;;;;24.40;101069.00;;;;2067879;28;20238;-66
2021/07/19 03:19:04;;;;;;;3.60;3.20;;;;;24.30;101062.00;;;;2067696;28;20584;-66
2021/07/19 03:20:05;;;;;;;3.50;3.20;;;;;24.40;101070.00;;;;2049604;28;20467;-66
2021/07/19 03:21:06;;;;;;;3.95;3.55;;;;;24.40;101061.00;;;;2041853;28;20328;-66
2021/07/19 03:22:06;;;;;;;3.80;3.50;;;;;24.40;101062.00;;;;2043021;28;20213;-66
2021/07/19 03:23:10;;;;;;;3.70;3.40;;;;;24.40;101060.00;;;;2051116;28;20254;-66
2021/07/19 03:24:11;;;;;;;4.00;3.70;;;;;24.40;101054.00;;;;2058837;28;20224;-66
2021/07/19 03:25:11;;;;;;;4.20;3.80;;;;;24.40;101059.00;;;;2051035;28;20215;-66
2021/07/19 03:26:12;;;;;;;3.97;3.67;;;;;24.40;101061.00;;;;2050496;28;20220;-66
2021/07/19 03:27:12;;;;;;;3.70;3.40;;;;;24.40;101063.00;;;;2050123;28;20212;-66
2021/07/19 03:28:13;;;;;;;3.73;3.43;;;;;24.40;101066.00;;;;2050350;28;20223;-66
2021/07/19 03:29:13;;;;;;;3.97;3.23;;;;;24.40;101066.00;;;;2042486;28;20213;-66
2021/07/19 03:30:13;;;;;;;4.10;3.80;;;;;24.40;101050.00;;;;2058131;28;20354;-65
2021/07/19 03:31:14;;;;;;;4.40;3.80;;;;;24.40;101061.00;;;;2058940;28;20692;-66
2021/07/19 03:32:14;;;;;;;4.13;3.73;;;;;24.40;101062.00;;;;2059517;28;20282;-65
2021/07/19 03:33:15;;;;;;;4.30;3.93;;;;;24.30;101060.00;;;;2068185;28;20214;-66
2021/07/19 03:34:15;;;;;;;3.63;3.33;;;;;24.40;101055.00;;;;2051371;28;20211;-66
2021/07/19 03:35:21;;;;;;;3.70;3.40;;;;;24.40;101066.00;;;;2050895;28;20691;-66
2021/07/19 03:36:21;;;;;;;4.22;3.83;;;;;24.40;101064.00;;;;2050676;28;20727;-66
2021/07/19 03:37:22;;;;;;;4.20;3.90;;;;;24.30;101054.00;;;;2035276;29;20214;-66
2021/07/19 03:38:22;;;;;;;4.27;3.87;;;;;24.40;101054.00;;;;2035606;29;20221;-66
2021/07/19 03:39:22;;;;;;;3.93;3.63;;;;;24.10;101061.00;;;;2051482;28;20223;-66
2021/07/19 03:40:23;;;;;;;4.57;4.17;;;;;24.40;101059.00;;;;2051019;28;20215;-66
2021/07/19 03:41:23;;;;;;;3.70;3.43;;;;;24.30;101057.00;;;;2060275;28;20207;-66
2021/07/19 03:42:24;;;;;;;4.17;3.77;;;;;24.30;101064.00;;;;2050884;28;20227;-66
2021/07/19 03:43:24;;;;;;;3.90;3.60;;;;;24.30;101067.00;;;;2042845;29;20264;-66
2021/07/19 03:44:24;;;;;;;4.40;4.00;;;;;24.30;101067.00;;;;2053322;28;20218;-66
2021/07/19 03:45:25;;;;;;;3.73;3.43;;;;;24.40;101068.00;;;;2061775;28;20242;-66
2021/07/19 03:46:25;;;;;;;4.03;3.67;;;;;24.30;101063.00;;;;2045866;28;20221;-66
2021/07/19 03:47:26;;;;;;;4.23;3.83;;;;;24.40;101073.00;;;;2043495;29;20213;-66
2021/07/19 03:48:27;;;;;;;4.33;3.93;;;;;24.40;101066.00;;;;2060283;28;20219;-66
2021/07/19 03:49:27;;;;;;;4.50;4.10;;;;;24.40;101064.00;;;;2051535;28;20625;-66
2021/07/19 03:50:28;;;;;;;4.27;3.87;;;;;24.30;101034.00;;;;2042894;29;20466;-66
2021/07/19 03:51:29;;;;;;;4.30;3.90;;;;;24.30;101069.00;;;;2050789;28;20224;-66
2021/07/19 03:52:29;;;;;;;3.67;3.37;;;;;24.30;101069.00;;;;2050728;28;20215;-66
2021/07/19 03:53:30;;;;;;;4.67;4.27;;;;;24.30;101071.00;;;;2033487;29;20213;-66
2021/07/19 03:54:30;;;;;;;4.40;4.00;;;;;24.30;101070.00;;;;2035061;29;20253;-66
2021/07/19 03:55:30;;;;;;;4.10;3.80;;;;;24.30;101069.00;;;;2043435;29;20267;-66
2021/07/19 03:56:31;;;;;;;4.60;4.20;;;;;24.30;101070.00;;;;2047076;28;20216;-66
2021/07/19 03:57:31;;;;;;;4.83;4.33;;;;;24.30;101071.00;;;;2051427;28;20220;-66
2021/07/19 03:58:31;;;;;;;3.77;3.47;;;;;24.30;101071.00;;;;2051522;28;20649;-66
2021/07/19 03:59:33;;;;;;;4.60;3.90;;;;;24.30;101076.00;;;;2035141;29;20835;-66
2021/07/19 04:00:33;;;;;;;4.50;4.10;;;;;24.30;101067.00;;;;2042089;28;20723;-66
2021/07/19 04:01:35;;;;;;;4.57;4.17;;;;;24.30;101068.00;;;;2059204;28;20207;-66
2021/07/19 04:02:36;;;;;;;4.10;3.65;;;;;24.30;101078.00;;;;2059375;28;20219;-66
2021/07/19 04:03:51;;;;;;;4.03;3.73;;;;;24.30;101079.00;;;;2059843;28;20290;-66
2021/07/19 04:05:02;;;;;;;4.60;4.20;;;;;24.30;101074.00;;;;2051528;28;20868;-66
2021/07/19 04:06:03;;;;;;;3.92;3.63;;;;;24.30;101074.00;;;;2048088;28;20219;-66
2021/07/19 04:07:03;;;;;;;4.93;4.37;;;;;24.40;101066.00;;;;2042510;29;20264;-66
2021/07/19 04:08:03;;;;;;;4.87;4.47;;;;;24.40;101071.00;;;;2035041;29;20453;-66
2021/07/19 04:09:05;;;;;;;4.63;4.23;;;;;24.30;101071.00;;;;2043593;29;20232;-66
2021/07/19 04:10:07;;;;;;;4.30;3.92;;;;;24.30;101069.00;;;;2051278;28;20701;-66
2021/07/19 04:11:07;;;;;;;3.90;3.60;;;;;24.40;101073.00;;;;2051242;28;20226;-66
2021/07/19 04:12:12;;;;;;;4.67;4.27;;;;;24.30;101076.00;;;;2050949;28;20212;-66
2021/07/19 04:13:12;;;;;;;4.50;4.10;;;;;24.30;101068.00;;;;2042969;29;20247;-65
2021/07/19 04:14:13;;;;;;;4.50;4.10;;;;;24.30;101068.00;;;;2053196;28;20258;-66
2021/07/19 04:15:13;;;;;;;4.57;4.17;;;;;24.40;101066.00;;;;2052102;28;20259;-66
2021/07/19 04:16:14;;;;;;;4.90;4.50;;;;;24.30;101074.00;;;;2057156;28;20262;-66
2021/07/19 04:17:15;;;;;;;4.70;4.30;;;;;24.20;101066.00;;;;2061892;28;20207;-66
2021/07/19 04:18:16;;;;;;;4.57;4.17;;;;;24.20;101070.00;;;;2050589;28;20678;-66
2021/07/19 04:19:16;;;;;;;5.47;4.38;;;;;24.20;101066.00;;;;2050637;28;20250;-66
2021/07/19 04:20:19;;;;;;;5.00;4.60;;;;;24.30;101072.00;;;;2059086;28;20666;-67
2021/07/19 04:21:21;;;;;;;4.90;4.45;;;;;24.30;101064.00;;;;2059848;28;20309;-66
2021/07/19 04:22:21;;;;;;;5.30;4.80;;;;;24.30;101065.00;;;;2051278;28;20729;-66
2021/07/19 04:23:22;;;;;;;5.53;5.03;;;;;24.30;101070.00;;;;2043332;28;20243;-66
2021/07/19 04:24:22;;;;;;;4.30;3.90;;;;;24.30;101070.00;;;;2050094;28;20211;-65
2021/07/19 04:25:22;;;;;;;3.97;3.67;;;;;24.30;101072.00;;;;2049430;28;20235;-66
2021/07/19 04:26:23;;;;;;;4.87;4.37;;;;;24.40;101075.00;;;;2050273;28;20216;-66
2021/07/19 04:27:23;;;;;;;4.73;4.40;;;;;24.40;101070.00;;;;2049905;28;20235;-66
2021/07/19 04:28:24;;;;;;;4.60;4.20;;;;;24.40;101069.00;;;;2042521;29;20303;-65
2021/07/19 04:29:24;;;;;;;4.73;4.33;;;;;24.40;101070.00;;;;2050421;28;20216;-66
2021/07/19 04:30:31;;;;;;;5.20;4.70;;;;;24.40;101073.00;;;;2058958;28;20277;-65
2021/07/19 04:31:31;;;;;;;4.40;4.10;;;;;24.40;101067.00;;;;2059173;28;20230;-66
2021/07/19 04:32:32;;;;;;;8.53;4.57;;;;;24.40;101074.00;;;;2058972;28;20218;-66
2021/07/19 04:33:32;;;;;;;4.63;4.23;;;;;24.40;101069.00;;;;2050487;28;20216;-66
2021/07/19 04:34:33;;;;;;;4.97;4.57;;;;;24.40;101061.00;;;;2050534;28;20212;-66
2021/07/19 04:35:34;;;;;;;8.18;4.10;;;;;24.40;101079.00;;;;2058730;28;20266;-66
2021/07/19 04:36:34;;;;;;;6.87;4.77;;;;;24.40;101066.00;;;;2059335;28;20219;-66
2021/07/19 04:37:36;;;;;;;5.23;4.60;;;;;24.40;101077.00;;;;2059604;28;20868;-66
2021/07/19 04:38:37;;;;;;;5.65;4.35;;;;;24.40;101076.00;;;;2043004;29;20582;-66
2021/07/19 04:39:37;;;;;;;5.33;4.83;;;;;24.30;101084.00;;;;2035091;29;20224;-66
2021/07/19 04:40:37;;;;;;;4.63;4.23;;;;;24.40;101089.00;;;;2049796;28;21009;-66
2021/07/19 04:41:38;;;;;;;5.10;4.60;;;;;24.40;101080.00;;;;2058988;28;20219;-66
2021/07/19 04:42:39;;;;;;;5.53;4.40;;;;;24.40;101088.00;;;;2050387;28;20217;-66
2021/07/19 04:43:39;;;;;;;4.90;4.37;;;;;24.40;101091.00;;;;2050356;28;20304;-67
2021/07/19 04:44:39;;;;;;;5.87;5.37;;;;;24.30;101085.00;;;;2063398;28;20704;-66
2021/07/19 04:45:40;;;;;;;5.40;4.90;;;;;24.40;101088.00;;;;2060856;28;20694;-66
2021/07/19 04:46:40;;;;;;;5.30;4.73;;;;;24.40;101081.00;;;;2060511;28;20211;-66
2021/07/19 04:47:40;;;;;;;5.10;4.60;;;;;24.40;101080.00;;;;2059822;28;20221;-66
2021/07/19 04:48:41;;;;;;;5.47;4.90;;;;;24.40;101084.00;;;;2058490;28;20626;-65
2021/07/19 04:49:41;;;;;;;5.03;4.50;;;;;24.40;101077.00;;;;2055493;28;20743;-66
2021/07/19 04:50:42;;;;;;;4.40;4.00;;;;;24.40;101085.00;;;;2057319;28;20218;-66
2021/07/19 04:51:42;;;;;;;5.70;4.90;;;;;24.40;101083.00;;;;2057707;28;20227;-66
2021/07/19 04:52:43;;;;;;;4.80;4.40;;;;;24.40;101088.00;;;;2050659;28;20592;-66
2021/07/19 04:53:44;;;;;;;5.50;4.83;;;;;24.40;101090.00;;;;2042752;29;20300;-66
2021/07/19 04:54:44;;;;;;;5.63;5.13;;;;;24.40;101090.00;;;;2042989;28;20704;-67
2021/07/19 04:55:47;;;;;;;4.60;4.20;;;;;24.40;101090.00;;;;2034727;29;20257;-66
2021/07/19 04:56:48;;;;;;;4.82;4.38;;;;;24.40;101088.00;;;;2034870;29;20217;-66
2021/07/19 04:57:51;;;;;;;4.90;4.38;;;;;24.40;101102.00;;;;2042100;29;20988;-66
2021/07/19 04:58:52;;;;;;;5.88;5.28;;;;;24.40;101101.00;;;;2042446;29;20233;-66
2021/07/19 04:59:53;;;;;;;5.90;5.30;;;;;24.40;101101.00;;;;2041976;29;20217;-66
2021/07/19 05:00:55;;;;;;;5.97;5.47;;;;;24.40;101103.00;;;;2049659;28;20508;-66
2021/07/19 05:01:56;;;;;;;6.90;6.30;;;;;24.40;101107.00;;;;2035330;29;20462;-67
2021/07/19 05:02:56;;;;;;;10.23;8.73;;;;;24.40;101092.00;;;;2035183;29;20221;-66
2021/07/19 05:03:57;;;;;;;11.80;10.70;;;;;24.40;101106.00;;;;2048406;28;20235;-67
2021/07/19 05:04:57;;;;;;;11.60;9.83;;;;;24.40;101101.00;;;;2042007;28;20253;-66